Time;durP1;ratioP1;P1;durP2;ratioP2;P2;SDS_P1;SDS_P2;PMS_P1;PMS_P2;Temp;Humidity;BMP_temperature;BMP_pressure;BME280_temperature;BME280_humidity;BME280_pressure;Samples;Min_cycle;Max_cycle;Signal;HPM_P1;HPM_P2
2022/04/20 00:01:13;;;;;;;4.63;1.10;;;;;;;;;;5039237;28;20574;-58
2022/04/20 00:03:39;;;;;;;3.53;1.42;;;;;;;;;;5038502;28;20100;-58
2022/04/20 00:06:05;;;;;;;5.10;1.45;;;;;;;;;;5039410;28;20116;-57
2022/04/20 00:08:32;;;;;;;4.78;1.35;;;;;;;;;;5039881;28;20025;-58
2022/04/20 00:10:58;;;;;;;5.00;1.67;;;;;;;;;;5043042;28;20562;-57
2022/04/20 00:13:24;;;;;;;2.38;1.30;;;;;;;;;;5039376;28;20112;-58
2022/04/20 00:15:50;;;;;;;4.55;1.40;;;;;;;;;;5040649;28;20354;-58
2022/04/20 00:18:16;;;;;;;3.90;1.48;;;;;;;;;;5038636;28;20479;-58
2022/04/20 00:20:42;;;;;;;4.70;1.52;;;;;;;;;;5040492;28;20025;-58
2022/04/20 00:23:08;;;;;;;2.33;1.15;;;;;;;;;;5039035;28;20033;-56
2022/04/20 00:25:34;;;;;;;3.90;1.73;;;;;;;;;;5039061;28;20025;-57
2022/04/20 00:28:00;;;;;;;3.03;1.27;;;;;;;;;;5048788;28;20788;-58
2022/04/20 00:30:27;;;;;;;4.03;1.52;;;;;;;;;;5048904;28;20507;-57
2022/04/20 00:32:53;;;;;;;4.75;1.10;;;;;;;;;;5038071;28;20049;-57
2022/04/20 00:35:19;;;;;;;5.57;1.30;;;;;;;;;;5048597;28;20025;-57
2022/04/20 00:37:45;;;;;;;3.35;1.30;;;;;;;;;;5046765;28;20112;-58
2022/04/20 00:40:12;;;;;;;5.82;1.40;;;;;;;;;;5047235;28;20040;-58
2022/04/20 00:42:41;;;;;;;6.85;1.45;;;;;;;;;;5048313;28;20051;-56
2022/04/20 00:45:10;;;;;;;5.00;1.57;;;;;;;;;;5048088;28;20128;-57
2022/04/20 00:47:37;;;;;;;4.13;1.20;;;;;;;;;;5048287;28;20059;-53
2022/04/20 00:50:06;;;;;;;2.90;1.33;;;;;;;;;;5048804;28;20059;-56
2022/04/20 00:52:32;;;;;;;5.65;1.55;;;;;;;;;;5047029;28;20510;-57
2022/04/20 00:54:58;;;;;;;2.65;1.27;;;;;;;;;;5048482;28;20094;-56
2022/04/20 00:57:25;;;;;;;2.80;1.10;;;;;;;;;;5047985;28;20119;-58
2022/04/20 00:59:53;;;;;;;3.90;1.55;;;;;;;;;;5047933;28;20028;-56
2022/04/20 01:02:21;;;;;;;5.07;1.40;;;;;;;;;;5047638;28;20036;-58
2022/04/20 01:04:47;;;;;;;4.50;1.75;;;;;;;;;;5048210;28;20033;-57
2022/04/20 01:07:13;;;;;;;4.85;1.60;;;;;;;;;;5048075;28;20029;-57
2022/04/20 01:09:40;;;;;;;3.22;1.52;;;;;;;;;;5048694;28;20111;-58
2022/04/20 01:12:07;;;;;;;5.43;1.52;;;;;;;;;;5048280;28;20115;-56
2022/04/20 01:14:33;;;;;;;2.47;1.20;;;;;;;;;;5047773;28;20056;-58
2022/04/20 01:16:59;;;;;;;2.78;1.30;;;;;;;;;;5042520;28;20116;-57
2022/04/20 01:19:34;;;;;;;3.58;1.50;;;;;;;;;;5043786;28;20102;-58
2022/04/20 01:22:03;;;;;;;3.63;1.30;;;;;;;;;;5052354;28;20032;-58
2022/04/20 01:24:29;;;;;;;3.50;1.38;;;;;;;;;;5052058;28;20025;-58
2022/04/20 01:26:56;;;;;;;2.88;1.40;;;;;;;;;;5051996;28;20040;-58
2022/04/20 01:29:22;;;;;;;3.65;1.10;;;;;;;;;;5051476;28;20025;-57
2022/04/20 01:31:48;;;;;;;3.42;1.30;;;;;;;;;;5050938;28;20075;-58
2022/04/20 01:34:14;;;;;;;2.85;1.40;;;;;;;;;;5051233;28;20025;-56
2022/04/20 01:36:40;;;;;;;3.42;1.20;;;;;;;;;;5051538;28;20021;-58
2022/04/20 01:39:06;;;;;;;4.78;1.40;;;;;;;;;;5051420;28;20452;-57
2022/04/20 01:41:32;;;;;;;3.28;1.33;;;;;;;;;;5051268;28;20025;-57
2022/04/20 01:43:58;;;;;;;1.92;0.95;;;;;;;;;;5051704;28;20515;-57
2022/04/20 01:46:24;;;;;;;3.00;1.20;;;;;;;;;;5050928;28;20120;-57
2022/04/20 01:48:50;;;;;;;3.38;1.30;;;;;;;;;;5036630;28;20087;-58
2022/04/20 01:54:01;;;;;;;4.30;1.23;;;;;;;;;;5051645;28;20059;-58
2022/04/20 01:56:27;;;;;;;4.03;1.38;;;;;;;;;;5051058;28;20056;-58
2022/04/20 01:58:53;;;;;;;3.03;1.27;;;;;;;;;;5051045;28;20455;-58
2022/04/20 02:04:05;;;;;;;3.42;1.00;;;;;;;;;;5035190;28;20117;-58
2022/04/20 02:06:31;;;;;;;3.15;1.20;;;;;;;;;;5050319;28;20047;-58
2022/04/20 02:08:58;;;;;;;6.28;1.30;;;;;;;;;;5050420;28;20033;-58
2022/04/20 02:11:24;;;;;;;2.80;1.20;;;;;;;;;;5051561;28;20032;-58
2022/04/20 02:13:50;;;;;;;3.03;1.40;;;;;;;;;;5051646;28;20140;-58
2022/04/20 02:16:16;;;;;;;2.22;1.10;;;;;;;;;;5050993;28;20036;-59
2022/04/20 02:18:42;;;;;;;2.22;1.20;;;;;;;;;;5051173;28;20032;-58
2022/04/20 02:21:08;;;;;;;2.42;1.17;;;;;;;;;;5051053;28;20032;-58
2022/04/20 02:23:34;;;;;;;2.45;1.23;;;;;;;;;;5050072;28;20028;-59
2022/04/20 02:26:00;;;;;;;3.45;1.27;;;;;;;;;;5050869;28;20433;-59
2022/04/20 02:28:26;;;;;;;2.80;1.15;;;;;;;;;;5051543;28;20033;-59
2022/04/20 02:30:52;;;;;;;3.28;1.23;;;;;;;;;;5050472;28;20100;-57
2022/04/20 02:33:18;;;;;;;3.28;1.10;;;;;;;;;;5048687;28;20055;-59
2022/04/20 02:35:44;;;;;;;1.73;1.08;;;;;;;;;;5050712;28;20024;-58
2022/04/20 02:38:15;;;;;;;2.72;1.15;;;;;;;;;;5050759;28;20074;-58
2022/04/20 02:40:41;;;;;;;3.72;1.20;;;;;;;;;;5050427;28;20071;-59
2022/04/20 02:43:08;;;;;;;3.17;1.13;;;;;;;;;;5050930;28;20484;-58
2022/04/20 02:45:34;;;;;;;2.90;1.17;;;;;;;;;;5050448;28;20082;-58
2022/04/20 02:48:01;;;;;;;2.45;1.10;;;;;;;;;;5048782;28;20136;-58
2022/04/20 02:50:27;;;;;;;2.53;0.98;;;;;;;;;;5050370;28;20143;-56
2022/04/20 02:52:54;;;;;;;3.08;1.35;;;;;;;;;;5049886;28;20044;-58
2022/04/20 02:55:20;;;;;;;4.28;1.10;;;;;;;;;;5044423;28;20396;-58
2022/04/20 02:57:46;;;;;;;3.72;1.00;;;;;;;;;;5049300;28;20459;-58
2022/04/20 03:00:12;;;;;;;2.10;1.00;;;;;;;;;;5050367;28;20104;-59
2022/04/20 03:02:38;;;;;;;3.97;1.00;;;;;;;;;;5049655;28;20040;-58
2022/04/20 03:05:05;;;;;;;2.20;1.17;;;;;;;;;;5050324;28;20103;-59
2022/04/20 03:07:32;;;;;;;2.72;1.30;;;;;;;;;;5049807;28;20033;-58
2022/04/20 03:09:58;;;;;;;2.83;1.25;;;;;;;;;;5050112;28;20111;-56
2022/04/20 03:12:24;;;;;;;2.58;0.90;;;;;;;;;;5044671;28;20083;-56
2022/04/20 03:14:54;;;;;;;2.78;1.27;;;;;;;;;;5030369;28;20041;-58
2022/04/20 03:17:20;;;;;;;;;;;;;;;;;;5041558;28;20037;-58
2022/04/20 03:19:46;;;;;;;3.05;1.10;;;;;;;;;;5050177;28;19908;-58
2022/04/20 03:22:13;;;;;;;2.40;0.98;;;;;;;;;;5049466;28;20525;-58
2022/04/20 03:24:39;;;;;;;3.88;1.10;;;;;;;;;;5050102;28;20098;-58
2022/04/20 03:27:05;;;;;;;3.95;1.17;;;;;;;;;;5047704;28;20148;-57
2022/04/20 03:29:31;;;;;;;2.55;1.13;;;;;;;;;;5048135;28;20192;-58
2022/04/20 03:31:57;;;;;;;2.38;1.27;;;;;;;;;;5049085;28;20045;-58
2022/04/20 03:34:24;;;;;;;3.70;1.17;;;;;;;;;;5049505;28;20032;-58
2022/04/20 03:36:50;;;;;;;2.78;1.35;;;;;;;;;;5049483;28;20025;-57
2022/04/20 03:39:16;;;;;;;2.63;1.02;;;;;;;;;;5048730;28;20033;-58
2022/04/20 03:41:42;;;;;;;2.22;1.00;;;;;;;;;;5049525;28;20475;-58
2022/04/20 03:44:08;;;;;;;2.22;1.17;;;;;;;;;;5034284;28;20029;-56
2022/04/20 03:46:35;;;;;;;2.55;1.10;;;;;;;;;;5029335;28;20132;-58
2022/04/20 03:49:01;;;;;;;2.15;0.93;;;;;;;;;;5045494;28;20112;-58
2022/04/20 03:51:27;;;;;;;2.05;1.00;;;;;;;;;;5049032;28;20021;-58
2022/04/20 03:53:53;;;;;;;4.10;1.25;;;;;;;;;;5049144;28;20029;-58
2022/04/20 03:56:19;;;;;;;2.95;1.15;;;;;;;;;;5049319;28;20025;-58
2022/04/20 03:58:45;;;;;;;2.88;1.30;;;;;;;;;;5047224;28;20032;-58
2022/04/20 04:01:11;;;;;;;3.05;1.23;;;;;;;;;;5049040;28;20543;-58
2022/04/20 04:03:38;;;;;;;3.85;1.00;;;;;;;;;;5048613;28;20029;-58
2022/04/20 04:06:04;;;;;;;2.60;1.35;;;;;;;;;;5048648;28;20025;-58
2022/04/20 04:08:30;;;;;;;2.30;0.93;;;;;;;;;;5048825;28;20028;-59
2022/04/20 04:10:56;;;;;;;3.63;1.00;;;;;;;;;;5048528;28;20037;-58
2022/04/20 04:13:24;;;;;;;2.38;0.98;;;;;;;;;;5047197;28;20120;-58
2022/04/20 04:15:50;;;;;;;2.83;1.00;;;;;;;;;;5048739;28;20395;-57
2022/04/20 04:18:16;;;;;;;2.20;0.93;;;;;;;;;;5048938;28;20025;-58
2022/04/20 04:20:43;;;;;;;2.83;1.10;;;;;;;;;;5048961;28;20030;-58
2022/04/20 04:23:09;;;;;;;1.98;1.05;;;;;;;;;;5049126;28;20032;-56
2022/04/20 04:25:36;;;;;;;3.67;1.38;;;;;;;;;;5048223;28;20112;-58
2022/04/20 04:28:02;;;;;;;3.67;1.08;;;;;;;;;;5047068;28;20079;-58
2022/04/20 04:30:29;;;;;;;2.75;1.23;;;;;;;;;;5048211;28;20132;-58
2022/04/20 04:32:55;;;;;;;3.80;1.25;;;;;;;;;;5048266;28;20064;-57
2022/04/20 04:35:21;;;;;;;1.52;0.93;;;;;;;;;;5048527;28;20055;-58
2022/04/20 04:37:47;;;;;;;3.13;1.20;;;;;;;;;;5047121;28;20055;-58
2022/04/20 04:40:14;;;;;;;1.92;0.80;;;;;;;;;;5048272;28;20037;-58
2022/04/20 04:42:41;;;;;;;5.28;1.20;;;;;;;;;;5037456;28;20057;-58
2022/04/20 04:50:36;;;;;;;19.77;2.00;;;;;;;;;;5048386;28;20040;-58
2022/04/20 04:53:02;;;;;;;5.38;1.67;;;;;;;;;;5048550;28;20503;-58
2022/04/20 04:55:28;;;;;;;8.30;1.25;;;;;;;;;;5047692;28;20124;-59
2022/04/20 04:57:54;;;;;;;10.35;1.52;;;;;;;;;;5047140;28;20032;-59
2022/04/20 05:00:20;;;;;;;7.90;1.50;;;;;;;;;;5046033;28;20115;-58
2022/04/20 05:02:46;;;;;;;8.82;1.83;;;;;;;;;;5040166;28;20072;-59
2022/04/20 05:05:13;;;;;;;4.63;1.40;;;;;;;;;;5048251;28;20120;-59
2022/04/20 05:07:39;;;;;;;7.32;2.20;;;;;;;;;;5047785;28;20037;-59
2022/04/20 05:10:05;;;;;;;5.57;2.20;;;;;;;;;;5047965;28;20021;-57
2022/04/20 05:12:34;;;;;;;6.35;1.92;;;;;;;;;;5044687;28;20436;-58
2022/04/20 05:15:01;;;;;;;7.25;2.10;;;;;;;;;;5028316;28;20125;-59
2022/04/20 05:17:27;;;;;;;8.73;2.35;;;;;;;;;;5047864;28;20017;-59
2022/04/20 05:19:53;;;;;;;6.57;2.63;;;;;;;;;;5045232;28;20713;-57
2022/04/20 05:22:19;;;;;;;5.03;2.47;;;;;;;;;;5042412;28;20038;-59
2022/04/20 05:24:45;;;;;;;6.07;2.45;;;;;;;;;;5035357;28;20602;-59
2022/04/20 05:27:12;;;;;;;6.18;2.35;;;;;;;;;;5039252;28;20033;-58
2022/04/20 05:29:38;;;;;;;8.05;2.30;;;;;;;;;;5037827;28;20547;-54
2022/04/20 05:32:04;;;;;;;7.80;2.65;;;;;;;;;;5035966;28;20064;-56
2022/04/20 05:34:33;;;;;;;6.30;2.35;;;;;;;;;;5040137;28;20096;-58
2022/04/20 05:42:28;;;;;;;5.85;2.40;;;;;;;;;;5030722;28;20040;-60
2022/04/20 05:44:54;;;;;;;5.28;2.50;;;;;;;;;;5032746;28;20040;-58
2022/04/20 05:47:21;;;;;;;4.20;2.05;;;;;;;;;;5033720;28;20055;-58
2022/04/20 05:49:47;;;;;;;5.30;2.60;;;;;;;;;;5028480;28;20029;-57
2022/04/20 05:52:13;;;;;;;6.43;2.53;;;;;;;;;;5030879;28;20064;-59
2022/04/20 05:54:39;;;;;;;5.72;2.30;;;;;;;;;;5031175;28;20041;-57
2022/04/20 05:57:05;;;;;;;6.63;2.05;;;;;;;;;;5031805;28;20029;-58
2022/04/20 05:59:31;;;;;;;6.78;2.22;;;;;;;;;;5032326;28;20090;-58
2022/04/20 06:01:57;;;;;;;6.68;3.05;;;;;;;;;;5030523;28;20021;-58
2022/04/20 06:04:24;;;;;;;5.53;2.45;;;;;;;;;;5029488;28;20045;-59
2022/04/20 06:06:50;;;;;;;6.10;2.95;;;;;;;;;;5029948;28;20037;-58
2022/04/20 06:09:16;;;;;;;5.65;2.47;;;;;;;;;;5035444;28;20076;-59
2022/04/20 06:11:42;;;;;;;4.93;2.22;;;;;;;;;;5033459;28;20029;-58
2022/04/20 06:14:08;;;;;;;6.18;2.42;;;;;;;;;;5033168;28;20028;-58
2022/04/20 06:16:34;;;;;;;5.53;2.88;;;;;;;;;;5033117;28;20051;-57
2022/04/20 06:19:00;;;;;;;7.22;1.90;;;;;;;;;;5036720;28;20796;-58
2022/04/20 06:21:26;;;;;;;9.30;2.28;;;;;;;;;;5035997;28;20170;-58
2022/04/20 06:23:52;;;;;;;7.50;1.80;;;;;;;;;;5034452;28;20036;-59
2022/04/20 06:26:19;;;;;;;18.67;2.40;;;;;;;;;;5035350;28;20083;-57
2022/04/20 06:28:46;;;;;;;12.80;2.10;;;;;;;;;;5036913;28;20037;-58
2022/04/20 06:31:12;;;;;;;16.77;2.97;;;;;;;;;;5036054;28;20178;-59
2022/04/20 06:33:38;;;;;;;32.45;3.45;;;;;;;;;;5037526;28;20040;-59
2022/04/20 06:36:04;;;;;;;14.77;2.35;;;;;;;;;;5037044;28;20033;-58
2022/04/20 06:38:30;;;;;;;15.55;2.28;;;;;;;;;;5036526;28;20028;-58
2022/04/20 06:40:58;;;;;;;17.33;2.03;;;;;;;;;;5037316;28;20041;-59
2022/04/20 06:43:24;;;;;;;15.40;2.15;;;;;;;;;;5033945;28;20037;-58
2022/04/20 06:45:50;;;;;;;11.60;2.03;;;;;;;;;;5039892;28;20079;-58
2022/04/20 06:48:16;;;;;;;13.13;2.97;;;;;;;;;;5029832;28;20049;-57
2022/04/20 06:50:43;;;;;;;14.60;2.80;;;;;;;;;;5032969;28;20070;-60
2022/04/20 06:58:41;;;;;;;8.60;2.30;;;;;;;;;;5034956;28;20040;-58
2022/04/20 07:01:08;;;;;;;8.88;2.45;;;;;;;;;;5032937;28;20029;-58
2022/04/20 07:03:38;;;;;;;6.53;2.03;;;;;;;;;;5034726;28;20158;-59
2022/04/20 07:06:04;;;;;;;5.00;2.30;;;;;;;;;;5032112;28;20074;-59
2022/04/20 07:08:31;;;;;;;7.93;2.20;;;;;;;;;;5034798;28;20037;-59
2022/04/20 07:10:57;;;;;;;9.77;2.08;;;;;;;;;;5036619;28;20156;-58
2022/04/20 07:13:23;;;;;;;5.93;2.17;;;;;;;;;;5031477;28;20106;-59
2022/04/20 07:15:49;;;;;;;7.28;2.08;;;;;;;;;;5033011;28;20102;-59
2022/04/20 07:18:17;;;;;;;6.22;2.13;;;;;;;;;;5035675;28;20033;-60
2022/04/20 07:20:43;;;;;;;12.05;2.67;;;;;;;;;;5037958;28;20053;-59
2022/04/20 07:23:09;;;;;;;8.93;2.22;;;;;;;;;;5030671;28;20082;-59
2022/04/20 07:25:36;;;;;;;10.27;2.00;;;;;;;;;;5031063;28;20462;-58
2022/04/20 07:28:03;;;;;;;6.22;1.90;;;;;;;;;;5037974;28;20053;-59
2022/04/20 07:30:29;;;;;;;10.65;2.40;;;;;;;;;;5035245;28;20032;-59
2022/04/20 07:32:55;;;;;;;8.70;2.60;;;;;;;;;;5032214;28;20057;-60
2022/04/20 07:35:21;;;;;;;11.95;2.72;;;;;;;;;;5030985;28;20026;-60
2022/04/20 07:37:47;;;;;;;5.90;2.13;;;;;;;;;;5036522;28;20483;-60
2022/04/20 07:40:14;;;;;;;6.18;2.53;;;;;;;;;;5035989;28;20485;-60
2022/04/20 07:42:40;;;;;;;6.32;2.47;;;;;;;;;;5032057;28;20021;-60
2022/04/20 07:45:07;;;;;;;6.90;2.58;;;;;;;;;;5034917;28;20098;-60
2022/04/20 07:47:33;;;;;;;6.47;2.80;;;;;;;;;;5034821;28;20140;-59
2022/04/20 07:52:45;;;;;;;6.72;2.13;;;;;;;;;;5033774;28;20053;-60
2022/04/20 07:55:12;;;;;;;4.57;2.13;;;;;;;;;;5033302;28;20500;-60
2022/04/20 07:57:39;;;;;;;6.25;2.13;;;;;;;;;;5033494;28;20024;-60
2022/04/20 08:00:06;;;;;;;5.30;2.00;;;;;;;;;;5032497;28;20029;-60
2022/04/20 08:02:32;;;;;;;4.40;1.98;;;;;;;;;;5032032;28;20025;-60
2022/04/20 08:04:58;;;;;;;7.82;2.45;;;;;;;;;;5035324;28;20025;-60
2022/04/20 08:07:24;;;;;;;6.85;2.15;;;;;;;;;;5032052;28;20060;-60
2022/04/20 08:09:50;;;;;;;5.15;1.75;;;;;;;;;;5034026;28;20033;-60
2022/04/20 08:12:16;;;;;;;5.13;2.20;;;;;;;;;;5035084;28;20135;-60
2022/04/20 08:14:42;;;;;;;5.10;2.25;;;;;;;;;;5033307;28;20111;-59
2022/04/20 08:17:08;;;;;;;5.55;2.05;;;;;;;;;;5025725;22;20539;-59
2022/04/20 08:19:34;;;;;;;5.50;2.05;;;;;;;;;;5015793;28;20034;-59
2022/04/20 08:22:00;;;;;;;8.90;2.20;;;;;;;;;;5019840;28;20030;-60
2022/04/20 08:24:26;;;;;;;5.53;1.98;;;;;;;;;;5017664;28;20040;-59
2022/04/20 08:26:53;;;;;;;11.48;2.80;;;;;;;;;;5016671;28;20029;-58
2022/04/20 08:29:19;;;;;;;6.50;2.20;;;;;;;;;;5016890;28;20037;-56
2022/04/20 08:31:45;;;;;;;5.18;2.10;;;;;;;;;;5019223;28;20600;-59
2022/04/20 08:34:11;;;;;;;6.72;2.15;;;;;;;;;;5018172;28;20041;-60
2022/04/20 08:36:38;;;;;;;3.88;2.28;;;;;;;;;;5018365;28;20036;-58
2022/04/20 08:39:04;;;;;;;3.92;1.58;;;;;;;;;;5015424;28;20562;-61
2022/04/20 08:41:31;;;;;;;6.43;1.90;;;;;;;;;;5017704;28;20052;-58
2022/04/20 08:43:57;;;;;;;4.15;1.63;;;;;;;;;;5016354;28;20036;-59
2022/04/20 08:46:24;;;;;;;4.80;2.22;;;;;;;;;;5017530;28;20034;-58
2022/04/20 08:48:51;;;;;;;4.57;1.40;;;;;;;;;;5018526;28;20037;-60
2022/04/20 08:51:18;;;;;;;4.95;1.70;;;;;;;;;;5015536;28;20477;-57
2022/04/20 08:53:44;;;;;;;3.72;1.50;;;;;;;;;;5015125;28;20033;-59
2022/04/20 08:58:56;;;;;;;3.42;1.58;;;;;;;;;;5020017;28;20036;-58
2022/04/20 09:01:22;;;;;;;5.80;2.00;;;;;;;;;;5015783;28;20033;-59
2022/04/20 09:03:49;;;;;;;3.85;1.30;;;;;;;;;;5018421;28;20025;-56
2022/04/20 09:06:15;;;;;;;4.82;1.40;;;;;;;;;;5018279;28;20038;-58
2022/04/20 09:08:41;;;;;;;6.35;1.42;;;;;;;;;;5014807;28;20076;-58
2022/04/20 09:11:08;;;;;;;3.63;1.27;;;;;;;;;;5015219;28;20069;-58
2022/04/20 09:13:38;;;;;;;3.80;1.60;;;;;;;;;;5013249;28;20164;-58
2022/04/20 09:16:07;;;;;;;4.03;1.25;;;;;;;;;;5013085;28;20077;-58
2022/04/20 09:18:34;;;;;;;3.95;1.45;;;;;;;;;;5011395;28;20139;-58
2022/04/20 09:21:10;;;;;;;4.63;1.25;;;;;;;;;;5014576;28;20053;-57
2022/04/20 09:23:36;;;;;;;3.70;1.40;;;;;;;;;;5014469;28;20438;-58
2022/04/20 09:26:10;;;;;;;3.25;1.60;;;;;;;;;;5013663;28;20034;-58
2022/04/20 09:28:39;;;;;;;4.25;1.30;;;;;;;;;;5013546;28;20056;-59
2022/04/20 09:31:07;;;;;;;5.97;2.25;;;;;;;;;;5014146;28;20037;-58
2022/04/20 09:33:43;;;;;;;4.93;2.53;;;;;;;;;;5013216;28;20675;-58
2022/04/20 09:36:09;;;;;;;5.20;1.80;;;;;;;;;;5013662;28;20033;-57
2022/04/20 09:38:41;;;;;;;6.22;2.53;;;;;;;;;;5012881;28;20061;-58
2022/04/20 09:41:10;;;;;;;7.25;2.35;;;;;;;;;;5013647;28;20029;-58
2022/04/20 09:43:39;;;;;;;5.85;2.20;;;;;;;;;;5014154;28;20480;-58
2022/04/20 09:49:10;;;;;;;6.97;2.00;;;;;;;;;;5017182;28;20102;-58
2022/04/20 09:51:37;;;;;;;5.60;2.60;;;;;;;;;;5017243;28;20040;-58
2022/04/20 09:54:03;;;;;;;10.05;2.83;;;;;;;;;;5012040;28;20030;-58
2022/04/20 09:56:31;;;;;;;5.05;2.38;;;;;;;;;;5017663;28;20105;-58
2022/04/20 09:59:02;;;;;;;5.85;2.67;;;;;;;;;;5015803;28;20037;-57
2022/04/20 10:01:32;;;;;;;6.13;2.67;;;;;;;;;;5015700;28;20041;-58
2022/04/20 10:03:59;;;;;;;6.78;2.88;;;;;;;;;;5016355;28;20374;-58
2022/04/20 10:06:25;;;;;;;8.98;2.53;;;;;;;;;;5017202;28;20060;-57
2022/04/20 10:08:51;;;;;;;6.45;2.80;;;;;;;;;;5017047;28;20038;-58
2022/04/20 10:11:18;;;;;;;5.35;2.33;;;;;;;;;;5018968;28;20037;-58
2022/04/20 10:13:45;;;;;;;6.75;2.00;;;;;;;;;;5017232;28;20433;-58
2022/04/20 10:16:12;;;;;;;5.50;2.38;;;;;;;;;;5011868;28;20095;-58
2022/04/20 10:18:43;;;;;;;7.10;2.25;;;;;;;;;;5015151;28;20080;-59
2022/04/20 10:21:11;;;;;;;;;;;;;;;;;;5016136;28;20026;-59
2022/04/20 10:23:47;;;;;;;5.60;2.15;;;;;;;;;;5019310;28;19909;-58
2022/04/20 10:26:16;;;;;;;4.30;2.03;;;;;;;;;;5014699;28;20052;-58
2022/04/20 10:28:54;;;;;;;17.33;2.80;;;;;;;;;;5011557;28;20098;-58
2022/04/20 10:31:25;;;;;;;5.68;2.08;;;;;;;;;;5013975;28;20033;-59
2022/04/20 10:33:52;;;;;;;7.45;2.42;;;;;;;;;;5014527;28;20112;-59
2022/04/20 10:36:28;;;;;;;4.65;2.13;;;;;;;;;;5014061;28;20088;-60
2022/04/20 10:39:14;;;;;;;6.32;2.53;;;;;;;;;;5016216;28;20634;-58
2022/04/20 10:41:40;;;;;;;6.13;2.60;;;;;;;;;;5017081;28;20390;-60
2022/04/20 10:44:07;;;;;;;5.82;2.67;;;;;;;;;;5016239;28;20715;-58
2022/04/20 10:46:33;;;;;;;4.45;2.10;;;;;;;;;;5014108;28;20029;-57
2022/04/20 10:49:02;;;;;;;5.38;2.33;;;;;;;;;;5016385;28;20610;-58
2022/04/20 10:51:34;;;;;;;3.75;2.15;;;;;;;;;;5015260;28;20033;-59
2022/04/20 10:54:18;;;;;;;9.60;3.20;;;;;;;;;;5016399;28;20061;-58
2022/04/20 10:57:10;;;;;;;8.00;2.65;;;;;;;;;;5011903;28;20050;-60
2022/04/20 10:59:39;;;;;;;5.25;2.28;;;;;;;;;;5006161;28;20053;-58
2022/04/20 11:02:16;;;;;;;6.13;2.50;;;;;;;;;;5012300;28;20056;-58
2022/04/20 11:05:10;;;;;;;5.78;2.33;;;;;;;;;;5012708;28;20041;-59
2022/04/20 11:07:57;;;;;;;5.00;2.20;;;;;;;;;;5014372;28;20052;-60
2022/04/20 11:10:23;;;;;;;12.00;2.67;;;;;;;;;;5015855;28;20401;-59
2022/04/20 11:21:07;;;;;;;5.70;2.00;;;;;;;;;;5014914;28;20160;-59
2022/04/20 11:23:57;;;;;;;4.65;2.20;;;;;;;;;;5013249;28;20061;-58
2022/04/20 11:26:40;;;;;;;6.20;2.60;;;;;;;;;;5014882;28;20026;-59
2022/04/20 11:29:09;;;;;;;4.53;1.92;;;;;;;;;;5013375;28;20037;-58
2022/04/20 11:31:38;;;;;;;3.72;1.90;;;;;;;;;;5015398;28;20034;-58
2022/04/20 11:34:05;;;;;;;3.58;1.80;;;;;;;;;;5011878;28;20037;-57
2022/04/20 11:36:31;;;;;;;8.07;2.40;;;;;;;;;;5018218;28;20025;-59
2022/04/20 11:38:58;;;;;;;7.32;1.70;;;;;;;;;;5017264;28;20111;-59
2022/04/20 11:41:24;;;;;;;5.03;1.40;;;;;;;;;;5015189;28;23042;-58
2022/04/20 11:43:50;;;;;;;3.85;1.83;;;;;;;;;;5012608;28;20022;-57
2022/04/20 11:46:17;;;;;;;2.67;1.40;;;;;;;;;;5014316;28;20561;-59
2022/04/20 11:48:51;;;;;;;4.28;1.70;;;;;;;;;;5014969;28;20061;-59
2022/04/20 11:51:21;;;;;;;5.22;1.33;;;;;;;;;;5012126;28;20036;-61
2022/04/20 11:53:48;;;;;;;3.72;1.40;;;;;;;;;;5013592;28;20694;-59
2022/04/20 11:56:15;;;;;;;6.60;1.95;;;;;;;;;;5011451;28;20420;-59
2022/04/20 11:58:41;;;;;;;4.35;1.30;;;;;;;;;;5016154;28;20033;-58
2022/04/20 12:01:08;;;;;;;3.38;1.33;;;;;;;;;;5012483;28;20697;-59
2022/04/20 12:03:41;;;;;;;3.10;1.35;;;;;;;;;;5014110;28;20091;-58
2022/04/20 12:06:08;;;;;;;3.92;1.50;;;;;;;;;;5014196;28;20033;-59
2022/04/20 12:08:41;;;;;;;3.97;1.10;;;;;;;;;;5015022;28;20041;-59
2022/04/20 12:11:08;;;;;;;3.90;1.60;;;;;;;;;;5015290;28;20113;-60
2022/04/20 12:13:35;;;;;;;3.63;1.50;;;;;;;;;;5017459;28;20033;-60
2022/04/20 12:16:05;;;;;;;4.97;1.30;;;;;;;;;;5016553;28;20053;-59
2022/04/20 12:18:33;;;;;;;3.60;1.10;;;;;;;;;;5015658;28;20030;-60
2022/04/20 12:20:59;;;;;;;4.22;1.10;;;;;;;;;;5014948;28;20056;-58
2022/04/20 12:23:33;;;;;;;2.30;1.10;;;;;;;;;;5016835;28;20504;-59
2022/04/20 12:26:01;;;;;;;2.75;1.13;;;;;;;;;;5016404;28;20030;-59
2022/04/20 12:28:36;;;;;;;2.67;1.10;;;;;;;;;;5015965;28;20447;-58
2022/04/20 12:31:03;;;;;;;2.85;1.30;;;;;;;;;;5013287;28;20041;-59
2022/04/20 12:33:30;;;;;;;3.13;0.90;;;;;;;;;;5013429;28;20480;-58
2022/04/20 12:36:08;;;;;;;1.58;0.90;;;;;;;;;;5015011;28;20032;-59
2022/04/20 12:38:50;;;;;;;4.38;1.20;;;;;;;;;;5017740;28;20091;-59
2022/04/20 12:41:35;;;;;;;3.03;1.02;;;;;;;;;;5016728;28;20040;-59
2022/04/20 12:44:02;;;;;;;3.20;1.15;;;;;;;;;;5014806;28;20124;-59
2022/04/20 12:46:33;;;;;;;2.67;1.10;;;;;;;;;;5010667;28;20041;-58
2022/04/20 12:48:59;;;;;;;2.03;0.80;;;;;;;;;;5016687;28;20445;-59
2022/04/20 12:51:25;;;;;;;2.90;1.10;;;;;;;;;;5011506;28;20480;-58
2022/04/20 12:53:51;;;;;;;2.92;0.95;;;;;;;;;;5014396;28;20465;-58
2022/04/20 13:02:02;;;;;;;4.57;1.00;;;;;;;;;;5010310;28;20045;-59
2022/04/20 13:04:28;;;;;;;3.33;1.20;;;;;;;;;;5013643;28;20026;-59
2022/04/20 13:06:55;;;;;;;2.13;1.05;;;;;;;;;;5015275;28;20597;-59
2022/04/20 13:09:21;;;;;;;1.60;0.90;;;;;;;;;;5014501;28;20042;-58
2022/04/20 13:11:47;;;;;;;3.58;1.00;;;;;;;;;;5015502;28;20084;-59
2022/04/20 13:14:13;;;;;;;3.28;1.17;;;;;;;;;;5013881;28;20025;-59
2022/04/20 13:16:39;;;;;;;4.03;1.13;;;;;;;;;;5013291;28;20049;-58
2022/04/20 13:19:05;;;;;;;4.47;0.90;;;;;;;;;;5019362;28;20725;-59
2022/04/20 13:21:32;;;;;;;2.15;0.90;;;;;;;;;;5020340;28;20025;-59
2022/04/20 13:23:58;;;;;;;3.58;1.13;;;;;;;;;;5021707;28;20033;-58
2022/04/20 13:29:10;;;;;;;2.58;1.25;;;;;;;;;;5018489;28;20055;-58
2022/04/20 13:31:36;;;;;;;3.75;1.20;;;;;;;;;;5018172;28;20068;-59
2022/04/20 13:34:03;;;;;;;2.65;0.90;;;;;;;;;;5019328;28;21401;-59
2022/04/20 13:36:29;;;;;;;2.15;1.00;;;;;;;;;;5020825;28;20060;-60
2022/04/20 13:38:55;;;;;;;1.70;0.80;;;;;;;;;;5019669;28;20030;-59
2022/04/20 13:41:21;;;;;;;1.85;0.85;;;;;;;;;;5015782;28;20033;-56
2022/04/20 13:43:47;;;;;;;1.52;0.80;;;;;;;;;;5017365;28;20103;-58
2022/04/20 13:46:13;;;;;;;4.63;1.27;;;;;;;;;;5014279;28;20034;-59
2022/04/20 13:48:41;;;;;;;6.97;1.02;;;;;;;;;;5019484;28;20033;-59
2022/04/20 13:51:07;;;;;;;8.90;2.13;;;;;;;;;;5016204;28;20885;-59
2022/04/20 13:53:34;;;;;;;11.00;2.53;;;;;;;;;;5014716;28;20037;-58
2022/04/20 13:56:00;;;;;;;14.25;2.13;;;;;;;;;;5014683;28;20112;-59
2022/04/20 13:58:26;;;;;;;8.00;1.83;;;;;;;;;;5014078;28;20036;-58
2022/04/20 14:00:52;;;;;;;8.13;2.17;;;;;;;;;;5012510;28;20042;-61
2022/04/20 14:03:18;;;;;;;5.18;1.65;;;;;;;;;;5014462;28;20041;-58
2022/04/20 14:05:44;;;;;;;7.18;2.00;;;;;;;;;;5015150;28;20132;-58
2022/04/20 14:08:10;;;;;;;4.63;2.05;;;;;;;;;;5015338;28;20744;-59
2022/04/20 14:10:38;;;;;;;6.05;2.00;;;;;;;;;;5016207;28;20568;-59
2022/04/20 14:13:04;;;;;;;5.25;2.33;;;;;;;;;;5020236;28;20079;-59
2022/04/20 14:15:30;;;;;;;5.63;1.70;;;;;;;;;;5016115;28;20033;-58
2022/04/20 14:17:56;;;;;;;5.25;1.45;;;;;;;;;;5017806;28;20025;-56
2022/04/20 14:20:22;;;;;;;5.13;1.83;;;;;;;;;;5014138;28;20029;-58
2022/04/20 14:22:48;;;;;;;4.20;1.65;;;;;;;;;;5013126;28;20585;-59
2022/04/20 14:33:29;;;;;;;3.80;1.58;;;;;;;;;;5014799;28;20084;-56
2022/04/20 14:35:56;;;;;;;4.80;2.00;;;;;;;;;;5015813;28;20030;-58
2022/04/20 14:38:22;;;;;;;4.32;1.55;;;;;;;;;;5012502;28;20038;-58
2022/04/20 14:40:49;;;;;;;2.80;1.50;;;;;;;;;;5015302;28;20060;-59
2022/04/20 14:43:15;;;;;;;4.03;1.55;;;;;;;;;;5017617;28;20104;-58
2022/04/20 14:45:41;;;;;;;8.93;1.80;;;;;;;;;;5015242;28;20039;-57
2022/04/20 14:48:07;;;;;;;3.72;1.92;;;;;;;;;;5017272;28;20041;-58
2022/04/20 14:50:33;;;;;;;5.93;1.60;;;;;;;;;;5019910;28;20386;-57
2022/04/20 14:53:00;;;;;;;6.90;1.67;;;;;;;;;;5015034;28;20499;-58
2022/04/20 14:55:26;;;;;;;6.70;2.10;;;;;;;;;;5015762;28;20030;-58
2022/04/20 14:57:52;;;;;;;13.30;1.73;;;;;;;;;;5015975;28;20025;-58
2022/04/20 15:00:18;;;;;;;3.38;1.52;;;;;;;;;;5014940;28;20689;-59
2022/04/20 15:02:48;;;;;;;15.77;1.73;;;;;;;;;;5016248;28;20026;-57
2022/04/20 15:05:15;;;;;;;7.95;2.05;;;;;;;;;;5010433;28;20369;-59
2022/04/20 15:07:41;;;;;;;5.75;1.60;;;;;;;;;;5015816;28;20117;-58
2022/04/20 15:10:08;;;;;;;6.60;1.45;;;;;;;;;;5013858;28;20037;-58
2022/04/20 15:12:34;;;;;;;4.03;1.60;;;;;;;;;;5015688;28;20035;-59
2022/04/20 15:15:00;;;;;;;3.58;2.08;;;;;;;;;;5011309;28;20120;-58
2022/04/20 15:17:28;;;;;;;4.68;1.75;;;;;;;;;;5016241;28;20064;-59
2022/04/20 15:19:55;;;;;;;6.95;2.00;;;;;;;;;;5012913;28;20388;-59
2022/04/20 15:22:21;;;;;;;6.80;2.10;;;;;;;;;;5013944;28;20732;-59
2022/04/20 15:24:48;;;;;;;7.55;1.95;;;;;;;;;;5013967;28;20060;-58
2022/04/20 15:27:14;;;;;;;9.95;2.20;;;;;;;;;;5013886;28;20427;-59
2022/04/20 15:29:41;;;;;;;9.25;2.38;;;;;;;;;;5013016;28;20053;-56
2022/04/20 15:32:08;;;;;;;4.25;1.50;;;;;;;;;;5014659;28;20784;-58
2022/04/20 15:34:34;;;;;;;10.23;1.65;;;;;;;;;;5016334;28;20032;-57
2022/04/20 15:37:05;;;;;;;5.65;1.73;;;;;;;;;;5015677;28;20033;-59
2022/04/20 15:39:31;;;;;;;6.57;1.55;;;;;;;;;;5014803;28;20036;-59